createdAt,value
2024-02-22T00:00:55.715Z,7.37
2024-02-22T00:01:57.474Z,7.32
2024-02-22T00:02:59.086Z,7.39
2024-02-22T00:04:00.555Z,7.40
2024-02-22T00:05:02.221Z,7.38
2024-02-22T00:06:04.962Z,7.40
2024-02-22T00:07:06.873Z,7.38
2024-02-22T00:08:08.393Z,7.38
2024-02-22T00:09:10.059Z,7.42
2024-02-22T00:10:13.516Z,7.44
2024-02-22T00:11:16.243Z,7.45
2024-02-22T00:12:17.933Z,7.44
2024-02-22T00:13:19.474Z,7.44
2024-02-22T00:14:21.029Z,7.49
2024-02-22T00:15:22.645Z,7.49
2024-02-22T00:16:24.166Z,7.51
2024-02-22T00:17:25.900Z,7.51
2024-02-22T00:18:27.458Z,7.54
2024-02-22T00:19:29.716Z,7.52
2024-02-22T00:20:31.918Z,7.49
2024-02-22T00:21:33.419Z,7.55
2024-02-22T00:22:34.943Z,7.57
2024-02-22T00:23:36.514Z,7.52
2024-02-22T00:24:38.116Z,7.49
2024-02-22T00:25:39.851Z,7.51
2024-02-22T00:26:41.404Z,7.54
2024-02-22T00:27:43.080Z,7.54
2024-02-22T00:28:44.593Z,7.50
2024-02-22T00:29:46.137Z,7.49
2024-02-22T00:30:47.575Z,7.52
2024-02-22T00:31:49.470Z,7.52
2024-02-22T00:32:50.995Z,7.55
2024-02-22T00:33:52.506Z,7.56
2024-02-22T00:34:54.087Z,7.56
2024-02-22T00:35:55.714Z,7.59
2024-02-22T00:36:57.198Z,7.58
2024-02-22T00:37:58.783Z,7.57
2024-02-22T00:39:00.421Z,7.57
2024-02-22T00:40:05.033Z,7.59
2024-02-22T00:41:07.127Z,7.62
2024-02-22T00:42:08.602Z,7.62
2024-02-22T00:43:10.073Z,7.60
2024-02-22T00:44:11.637Z,7.60
2024-02-22T00:45:14.019Z,7.62
2024-02-22T00:46:15.520Z,7.64
2024-02-22T00:47:17.089Z,7.65
2024-02-22T00:48:18.840Z,7.64
2024-02-22T00:49:20.551Z,7.65
2024-02-22T00:50:22.169Z,7.67
2024-02-22T00:51:23.691Z,7.73
2024-02-22T00:52:25.243Z,7.73
2024-02-22T00:53:26.690Z,7.69
2024-02-22T00:54:28.148Z,7.70
2024-02-22T00:55:29.596Z,7.66
2024-02-22T00:56:31.066Z,7.70
2024-02-22T00:57:32.503Z,7.73
2024-02-22T00:58:34.063Z,7.70
2024-02-22T00:59:35.643Z,7.67
2024-02-22T01:00:37.476Z,7.64
2024-02-22T01:01:39.016Z,7.61
2024-02-22T01:02:40.532Z,7.62
2024-02-22T01:03:42.199Z,7.60
2024-02-22T01:04:46.709Z,7.57
2024-02-22T01:05:48.355Z,7.59
2024-02-22T01:06:49.974Z,7.62
2024-02-22T01:07:51.509Z,7.69
2024-02-22T01:08:53.037Z,7.63
2024-02-22T01:09:54.538Z,7.67
2024-02-22T01:10:56.088Z,7.65
2024-02-22T01:11:57.702Z,7.65
2024-02-22T01:12:59.193Z,7.68
2024-02-22T01:14:00.744Z,7.66
2024-02-22T01:15:02.835Z,7.65
2024-02-22T01:16:04.374Z,7.65
2024-02-22T01:17:06.065Z,7.63
2024-02-22T01:18:08.052Z,7.60
2024-02-22T01:19:09.650Z,7.60
2024-02-22T01:20:12.330Z,7.58
2024-02-22T01:21:14.249Z,7.62
2024-02-22T01:22:15.768Z,7.61
2024-02-22T01:23:17.457Z,7.70
2024-02-22T01:24:18.956Z,7.70
2024-02-22T01:25:20.398Z,7.75
2024-02-22T01:26:22.519Z,7.80
2024-02-22T01:27:24.187Z,7.81
2024-02-22T01:28:25.704Z,7.80
2024-02-22T01:29:28.086Z,7.85
2024-02-22T01:30:29.524Z,7.83
2024-02-22T01:31:31.975Z,7.83
2024-02-22T01:32:33.589Z,7.83
2024-02-22T01:33:35.517Z,7.84
2024-02-22T01:34:37.154Z,7.80
2024-02-22T01:35:38.651Z,7.85
2024-02-22T01:36:40.436Z,7.80
2024-02-22T01:37:42.737Z,7.81
2024-02-22T01:38:44.632Z,7.92
2024-02-22T01:39:47.145Z,7.88
2024-02-22T01:40:48.689Z,7.84
2024-02-22T01:41:50.171Z,7.87
2024-02-22T01:42:51.700Z,7.87
2024-02-22T01:43:53.943Z,7.92
2024-02-22T01:44:55.414Z,7.88
2024-02-22T01:45:58.471Z,7.90
2024-02-22T01:47:00.234Z,7.84
2024-02-22T01:48:02.080Z,7.86
2024-02-22T01:49:05.144Z,7.92
2024-02-22T01:50:09.310Z,7.90
2024-02-22T01:51:11.537Z,7.94
2024-02-22T01:52:12.944Z,7.90
2024-02-22T01:53:14.611Z,7.87
2024-02-22T01:54:16.155Z,7.90
2024-02-22T01:55:18.926Z,7.94
2024-02-22T01:56:21.645Z,7.97
2024-02-22T01:57:23.235Z,8.05
2024-02-22T01:58:25.977Z,8.02
2024-02-22T01:59:27.692Z,8.09
2024-02-22T02:00:29.744Z,8.07
2024-02-22T02:01:32.293Z,8.07
2024-02-22T02:02:34.260Z,8.05
2024-02-22T02:03:35.929Z,8.03
2024-02-22T02:04:38.945Z,7.99
2024-02-22T02:05:40.525Z,8.02
2024-02-22T02:06:42.069Z,8.05
2024-02-22T02:07:44.010Z,8.02
2024-02-22T02:08:45.679Z,8.03
2024-02-22T02:09:47.168Z,8.00
2024-02-22T02:10:48.966Z,7.98
2024-02-22T02:11:50.654Z,7.98
2024-02-22T02:12:52.243Z,7.94
2024-02-22T02:13:53.826Z,8.01
2024-02-22T02:14:57.588Z,7.97
2024-02-22T02:15:59.432Z,7.99
2024-02-22T02:17:00.993Z,7.99
2024-02-22T02:18:02.555Z,8.03
2024-02-22T02:19:10.099Z,8.05
2024-02-22T02:20:11.959Z,8.03
2024-02-22T02:21:40.881Z,8.03
2024-02-22T02:23:05.062Z,8.06
2024-02-22T02:24:14.617Z,8.06
2024-02-22T02:25:16.295Z,8.10
2024-02-22T02:26:19.043Z,8.06
2024-02-22T02:27:20.653Z,8.09
2024-02-22T02:28:22.193Z,8.13
2024-02-22T02:29:25.593Z,8.20
2024-02-22T02:30:27.063Z,8.22
2024-02-22T02:31:31.311Z,8.18
2024-02-22T02:32:33.011Z,8.17
2024-02-22T02:33:35.551Z,8.11
2024-02-22T02:34:37.061Z,8.13
2024-02-22T02:35:39.265Z,8.13
2024-02-22T02:36:40.855Z,8.12
2024-02-22T02:37:42.460Z,8.12
2024-02-22T02:38:43.940Z,8.11
2024-02-22T02:39:45.395Z,8.12
2024-02-22T02:40:46.924Z,8.14
2024-02-22T02:41:48.472Z,8.16
2024-02-22T02:42:49.985Z,8.19
2024-02-22T02:43:51.451Z,8.19
2024-02-22T02:44:52.956Z,8.18
2024-02-22T02:45:54.440Z,8.15
2024-02-22T02:46:55.990Z,8.17
2024-02-22T02:47:57.597Z,8.16
2024-02-22T02:48:59.207Z,8.19
2024-02-22T02:50:00.985Z,8.22
2024-02-22T02:51:05.052Z,8.38
2024-02-22T02:52:06.549Z,8.42
2024-02-22T02:53:08.014Z,8.46
2024-02-22T02:54:09.614Z,8.47
2024-02-22T02:55:13.740Z,8.41
2024-02-22T02:56:15.357Z,8.42
2024-02-22T02:57:16.890Z,8.44
2024-02-22T02:58:18.337Z,8.50
2024-02-22T02:59:19.930Z,8.50
2024-02-22T03:00:21.565Z,8.50
2024-02-22T03:01:23.049Z,8.53
2024-02-22T03:02:24.683Z,8.62
2024-02-22T03:03:26.245Z,8.61
2024-02-22T03:04:27.772Z,8.74
2024-02-22T03:05:29.614Z,8.74
2024-02-22T03:06:31.225Z,8.77
2024-02-22T03:07:32.758Z,8.83
2024-02-22T03:08:34.315Z,8.87
2024-02-22T03:09:35.780Z,8.93
2024-02-22T03:10:37.623Z,8.98
2024-02-22T03:11:39.318Z,8.99
2024-02-22T03:12:40.829Z,8.96
2024-02-22T03:13:42.358Z,9.00
2024-02-22T03:14:44.457Z,8.96
2024-02-22T03:15:49.375Z,8.95
2024-02-22T03:16:50.848Z,8.95
2024-02-22T03:17:52.377Z,8.96
2024-02-22T03:18:54.269Z,8.94
2024-02-22T03:19:57.759Z,8.96
2024-02-22T03:20:59.265Z,8.98
2024-02-22T03:22:00.869Z,9.02
2024-02-22T03:23:02.900Z,9.03
2024-02-22T03:24:05.024Z,9.04
2024-02-22T03:25:09.690Z,9.03
2024-02-22T03:26:11.157Z,8.98
2024-02-22T03:27:12.695Z,9.04
2024-02-22T03:28:16.193Z,9.00
2024-02-22T03:29:17.953Z,9.02
2024-02-22T03:30:19.559Z,9.02
2024-02-22T03:31:23.463Z,9.05
2024-02-22T03:32:25.097Z,8.97
2024-02-22T03:33:29.047Z,9.04
2024-02-22T03:34:30.694Z,9.02
2024-02-22T03:35:32.402Z,8.99
2024-02-22T03:36:34.084Z,8.99
2024-02-22T03:37:35.688Z,9.00
2024-02-22T03:38:38.705Z,9.06
2024-02-22T03:39:42.473Z,9.08
2024-02-22T03:40:44.033Z,9.04
2024-02-22T03:41:46.517Z,9.00
2024-02-22T03:42:48.544Z,9.01
2024-02-22T03:43:49.953Z,8.93
2024-02-22T03:44:51.393Z,8.92
2024-02-22T03:45:52.818Z,8.91
2024-02-22T03:46:54.254Z,8.94
2024-02-22T03:47:55.961Z,8.92
2024-02-22T03:48:57.649Z,9.02
2024-02-22T03:50:00.724Z,8.96
2024-02-22T03:51:04.477Z,9.00
2024-02-22T03:52:07.978Z,8.95
2024-02-22T03:53:11.572Z,8.89
2024-02-22T03:54:13.197Z,8.89
2024-02-22T03:55:14.708Z,8.93
2024-02-22T03:56:16.184Z,8.92
2024-02-22T03:57:17.655Z,8.86
2024-02-22T03:58:19.118Z,8.86
2024-02-22T03:59:20.626Z,8.89
2024-02-22T04:00:22.102Z,8.87
2024-02-22T04:01:23.604Z,8.83
2024-02-22T04:02:26.024Z,8.86
2024-02-22T04:03:28.872Z,8.92
2024-02-22T04:04:30.558Z,8.92
2024-02-22T04:05:32.406Z,8.83
2024-02-22T04:06:37.374Z,8.76
2024-02-22T04:07:43.261Z,8.77
2024-02-22T04:08:46.264Z,8.84
2024-02-22T04:09:47.742Z,8.76
2024-02-22T04:10:49.360Z,8.76
2024-02-22T04:11:51.141Z,8.74
2024-02-22T04:12:52.637Z,8.78
2024-02-22T04:13:54.403Z,8.79
2024-02-22T04:14:55.836Z,8.78
2024-02-22T04:15:58.024Z,8.73
2024-02-22T04:17:00.221Z,8.80
2024-02-22T04:18:01.788Z,8.80
2024-02-22T04:19:03.446Z,8.79
2024-02-22T04:20:05.601Z,8.77
2024-02-22T04:21:07.129Z,8.75
2024-02-22T04:22:08.723Z,8.75
2024-02-22T04:23:10.361Z,8.82
2024-02-22T04:24:11.872Z,8.81
2024-02-22T04:25:13.676Z,8.84
2024-02-22T04:26:15.294Z,8.89
2024-02-22T04:27:16.745Z,8.89
2024-02-22T04:28:19.887Z,8.89
2024-02-22T04:29:21.749Z,8.85
2024-02-22T04:30:23.289Z,8.81
2024-02-22T04:31:24.819Z,8.81
2024-02-22T04:32:26.434Z,8.75
2024-02-22T04:33:27.965Z,8.75
2024-02-22T04:34:29.540Z,8.77
2024-02-22T04:35:31.208Z,8.73
2024-02-22T04:36:32.666Z,8.75
2024-02-22T04:37:34.182Z,8.71
2024-02-22T04:38:35.721Z,8.72
2024-02-22T04:39:37.236Z,8.69
2024-02-22T04:40:39.046Z,8.70
2024-02-22T04:41:41.722Z,8.71
2024-02-22T04:42:43.245Z,8.73
2024-02-22T04:43:44.715Z,8.75
2024-02-22T04:44:46.318Z,8.69
2024-02-22T04:45:47.769Z,8.74
2024-02-22T04:46:49.282Z,8.74
2024-02-22T04:47:51.614Z,8.74
2024-02-22T04:48:53.130Z,8.74
2024-02-22T04:49:54.648Z,8.74
2024-02-22T04:50:56.202Z,8.69
2024-02-22T04:51:57.653Z,8.69
2024-02-22T04:53:00.820Z,8.69
2024-02-22T04:54:03.249Z,8.60
2024-02-22T04:55:05.272Z,8.65
2024-02-22T04:56:07.254Z,8.63
2024-02-22T04:57:08.722Z,8.64
2024-02-22T04:58:10.208Z,8.62
2024-02-22T04:59:11.791Z,8.60
2024-02-22T05:00:13.907Z,8.49
2024-02-22T05:01:15.496Z,8.61
2024-02-22T05:02:17.017Z,8.56
2024-02-22T05:03:18.559Z,8.64
2024-02-22T05:04:20.395Z,8.68
2024-02-22T05:05:22.210Z,8.66
2024-02-22T05:06:23.994Z,8.64
2024-02-22T05:07:25.444Z,8.68
2024-02-22T05:08:30.034Z,8.65
2024-02-22T05:09:32.118Z,8.62
2024-02-22T05:10:35.326Z,8.61
2024-02-22T05:11:37.175Z,8.50
2024-02-22T05:12:38.720Z,8.53
2024-02-22T05:13:42.356Z,8.54
2024-02-22T05:14:46.904Z,8.55
2024-02-22T05:15:48.930Z,8.58
2024-02-22T05:16:50.345Z,8.54
2024-02-22T05:17:51.928Z,8.50
2024-02-22T05:18:53.653Z,8.38
2024-02-22T05:19:55.254Z,8.40
2024-02-22T05:20:56.761Z,8.36
2024-02-22T05:21:58.195Z,8.30
2024-02-22T05:22:59.773Z,8.30
2024-02-22T05:24:01.596Z,8.34
2024-02-22T05:25:04.392Z,8.30
2024-02-22T05:26:05.930Z,8.31
2024-02-22T05:27:11.508Z,8.27
2024-02-22T05:28:12.953Z,8.24
2024-02-22T05:29:14.497Z,8.17
2024-02-22T05:30:16.036Z,8.13
2024-02-22T05:31:28.776Z,8.10
2024-02-22T05:32:30.508Z,8.09
2024-02-22T05:33:32.094Z,8.04
2024-02-22T05:34:33.764Z,8.04
2024-02-22T05:35:35.426Z,7.99
2024-02-22T05:36:36.854Z,8.00
2024-02-22T05:37:38.434Z,8.02
2024-02-22T05:38:41.482Z,8.04
2024-02-22T05:39:42.986Z,8.02
2024-02-22T05:40:44.572Z,7.98
2024-02-22T05:41:46.912Z,7.91
2024-02-22T05:42:49.748Z,7.90
2024-02-22T05:43:51.213Z,7.88
2024-02-22T05:44:52.700Z,7.94
2024-02-22T05:45:54.160Z,7.91
2024-02-22T05:46:55.669Z,7.90
2024-02-22T05:47:57.176Z,7.94
2024-02-22T05:48:58.845Z,7.95
2024-02-22T05:50:00.568Z,7.87
2024-02-22T05:51:02.251Z,7.92
2024-02-22T05:52:03.869Z,7.81
2024-02-22T05:53:05.424Z,7.86
2024-02-22T05:54:06.892Z,7.81
2024-02-22T05:55:08.820Z,7.76
2024-02-22T05:56:10.342Z,7.78
2024-02-22T05:57:13.476Z,7.74
2024-02-22T05:58:17.733Z,7.73
2024-02-22T05:59:19.239Z,7.77
2024-02-22T06:00:20.777Z,7.75
2024-02-22T06:01:22.303Z,7.69
2024-02-22T06:02:23.958Z,7.65
2024-02-22T06:03:25.551Z,7.61
2024-02-22T06:04:27.093Z,7.62
2024-02-22T06:05:29.434Z,7.68
2024-02-22T06:06:31.028Z,7.71
2024-02-22T06:07:32.583Z,7.71
2024-02-22T06:08:35.201Z,7.70
2024-02-22T06:09:36.735Z,7.65
2024-02-22T06:10:38.348Z,7.66
2024-02-22T06:11:41.087Z,7.63
2024-02-22T06:12:44.242Z,7.64
2024-02-22T06:13:46.761Z,7.62
2024-02-22T06:14:48.225Z,7.60
2024-02-22T06:15:49.701Z,7.59
2024-02-22T06:16:51.192Z,7.60
2024-02-22T06:17:52.750Z,7.63
2024-02-22T06:18:55.209Z,7.62
2024-02-22T06:19:56.779Z,7.57
2024-02-22T06:20:58.366Z,7.57
2024-02-22T06:22:00.073Z,7.59
2024-02-22T06:23:01.567Z,7.62
2024-02-22T06:24:03.513Z,7.58
2024-02-22T06:25:05.321Z,7.59
2024-02-22T06:26:06.897Z,7.64
2024-02-22T06:27:08.494Z,7.58
2024-02-22T06:28:11.032Z,7.61
2024-02-22T06:29:12.597Z,7.64
2024-02-22T06:30:15.690Z,7.64
2024-02-22T06:31:17.478Z,7.67
2024-02-22T06:32:19.092Z,7.69
2024-02-22T06:33:20.716Z,7.66
2024-02-22T06:34:22.362Z,7.64
2024-02-22T06:35:23.893Z,7.69
2024-02-22T06:36:25.374Z,7.65
2024-02-22T06:37:27.694Z,7.64
2024-02-22T06:38:29.410Z,7.65
2024-02-22T06:39:30.890Z,7.66
2024-02-22T06:40:32.535Z,7.67
2024-02-22T06:41:34.053Z,7.66
2024-02-22T06:42:35.750Z,7.70
2024-02-22T06:43:38.438Z,7.74
2024-02-22T06:44:40.033Z,7.72
2024-02-22T06:45:41.950Z,7.75
2024-02-22T06:46:44.520Z,7.76
2024-02-22T06:47:46.049Z,7.73
2024-02-22T06:48:49.446Z,7.79
2024-02-22T06:49:50.993Z,7.75
2024-02-22T06:50:52.502Z,7.76
2024-02-22T06:51:54.320Z,7.75
2024-02-22T06:52:55.822Z,7.77
2024-02-22T06:53:57.858Z,7.77
2024-02-22T06:54:59.317Z,7.72
2024-02-22T06:56:00.817Z,7.75
2024-02-22T06:57:04.255Z,7.72
2024-02-22T06:58:05.812Z,7.72
2024-02-22T06:59:07.794Z,7.73
2024-02-22T07:00:11.510Z,7.73
2024-02-22T07:01:13.013Z,7.72
2024-02-22T07:02:19.689Z,7.74
2024-02-22T07:03:21.209Z,7.71
2024-02-22T07:04:23.004Z,7.72
2024-02-22T07:05:24.552Z,7.74
2024-02-22T07:06:29.212Z,7.70
2024-02-22T07:07:30.706Z,7.75
2024-02-22T07:08:32.253Z,7.76
2024-02-22T07:09:33.739Z,7.78
2024-02-22T07:10:35.316Z,7.78
2024-02-22T07:11:37.176Z,7.76
2024-02-22T07:12:39.618Z,7.72
2024-02-22T07:13:41.109Z,7.71
2024-02-22T07:14:42.625Z,7.69
2024-02-22T07:15:44.062Z,7.64
2024-02-22T07:16:47.337Z,7.68
2024-02-22T07:17:49.240Z,7.66
2024-02-22T07:18:50.812Z,7.65
2024-02-22T07:19:52.384Z,7.64
2024-02-22T07:20:54.215Z,7.66
2024-02-22T07:21:55.980Z,7.65
2024-02-22T07:22:57.501Z,7.68
2024-02-22T07:23:59.018Z,7.65
2024-02-22T07:25:00.554Z,7.65
2024-02-22T07:26:02.285Z,7.59
2024-02-22T07:27:04.095Z,7.59
2024-02-22T07:28:06.684Z,7.59
2024-02-22T07:29:11.698Z,7.62
2024-02-22T07:30:15.078Z,7.67
2024-02-22T07:31:16.756Z,7.72
2024-02-22T07:32:18.358Z,7.77
2024-02-22T07:35:52.267Z,7.69
2024-02-22T07:36:53.779Z,7.70
2024-02-22T07:37:55.421Z,7.70
2024-02-22T07:38:58.433Z,7.69
2024-02-22T07:40:00.370Z,7.69
2024-02-22T07:41:06.723Z,7.75
2024-02-22T07:42:08.229Z,7.75
2024-02-22T07:43:10.964Z,7.73
2024-02-22T07:44:13.162Z,7.78
2024-02-22T07:45:15.261Z,7.75
2024-02-22T07:46:17.776Z,7.77
2024-02-22T07:47:19.382Z,7.72
2024-02-22T07:48:21.060Z,7.71
2024-02-22T07:49:22.775Z,7.72
2024-02-22T07:50:24.921Z,7.72
2024-02-22T07:51:26.597Z,7.79
2024-02-22T07:52:28.177Z,7.82
2024-02-22T07:53:34.668Z,7.77
2024-02-22T07:54:38.231Z,7.78
2024-02-22T07:55:40.088Z,7.82
2024-02-22T07:56:41.757Z,7.80
2024-02-22T07:57:43.194Z,7.73
2024-02-22T07:58:50.516Z,7.70
2024-02-22T07:59:56.988Z,7.71
2024-02-22T08:01:00.231Z,7.74
2024-02-22T08:02:01.959Z,7.75
2024-02-22T08:03:03.661Z,7.78
2024-02-22T08:04:05.428Z,7.81
2024-02-22T08:05:07.623Z,7.76
2024-02-22T08:06:10.492Z,7.76
2024-02-22T08:07:12.064Z,7.77
2024-02-22T08:08:16.014Z,7.77
2024-02-22T08:09:18.212Z,7.79
2024-02-22T08:10:19.746Z,7.81
2024-02-22T08:11:22.004Z,7.85
2024-02-22T08:12:23.945Z,7.78
2024-02-22T08:13:25.414Z,7.81
2024-02-22T08:14:26.924Z,7.83
2024-02-22T08:15:28.415Z,7.83
2024-02-22T08:16:30.228Z,7.82
2024-02-22T08:17:33.194Z,7.86
2024-02-22T08:18:39.793Z,7.81
2024-02-22T08:19:41.345Z,7.84
2024-02-22T08:20:43.039Z,7.79
2024-02-22T08:21:44.649Z,7.81
2024-02-22T08:22:46.547Z,7.79
2024-02-22T08:23:52.318Z,7.86
2024-02-22T08:24:54.984Z,7.84
2024-02-22T08:25:57.256Z,7.88
2024-02-22T08:26:58.750Z,7.86
2024-02-22T08:28:06.845Z,7.86
2024-02-22T08:29:09.535Z,7.89
2024-02-22T08:30:11.650Z,7.83
2024-02-22T08:31:16.201Z,7.84
2024-02-22T08:32:18.342Z,7.84
2024-02-22T08:33:25.714Z,7.87
2024-02-22T08:34:27.311Z,7.86
2024-02-22T08:35:29.150Z,7.83
2024-02-22T08:36:30.591Z,7.85
2024-02-22T08:37:32.095Z,7.87
2024-02-22T08:38:33.595Z,7.88
2024-02-22T08:39:35.121Z,7.90
2024-02-22T08:40:40.182Z,7.88
2024-02-22T08:41:42.223Z,7.92
2024-02-22T08:42:43.740Z,7.95
2024-02-22T08:43:45.270Z,7.93
2024-02-22T08:44:46.866Z,7.96
2024-02-22T08:45:49.669Z,7.99
2024-02-22T08:46:51.650Z,7.95
2024-02-22T08:47:53.372Z,7.96
2024-02-22T08:48:55.405Z,7.93
2024-02-22T08:49:58.373Z,7.91
2024-02-22T08:50:59.961Z,7.94
2024-02-22T08:52:05.239Z,7.96
2024-02-22T08:53:07.026Z,7.95
2024-02-22T08:54:08.587Z,7.95
2024-02-22T08:55:13.589Z,7.95
2024-02-22T08:56:15.691Z,7.95
2024-02-22T08:57:17.412Z,7.91
2024-02-22T08:58:18.881Z,7.92
2024-02-22T08:59:20.360Z,7.88
2024-02-22T09:00:21.988Z,7.91
2024-02-22T09:01:25.116Z,7.84
2024-02-22T09:02:26.684Z,7.87
2024-02-22T09:03:28.223Z,7.90
2024-02-22T09:04:29.769Z,7.93
2024-02-22T09:05:31.412Z,7.90
2024-02-22T09:06:33.142Z,7.89
2024-02-22T09:07:35.785Z,7.88
2024-02-22T09:08:40.304Z,7.92
2024-02-22T09:09:41.794Z,7.91
2024-02-22T09:10:43.339Z,7.91
2024-02-22T09:11:44.947Z,7.94
2024-02-22T09:12:46.545Z,7.96
2024-02-22T09:13:48.112Z,7.98
2024-02-22T09:14:49.654Z,8.02
2024-02-22T09:15:51.178Z,8.04
2024-02-22T09:16:52.699Z,8.01
2024-02-22T09:17:54.234Z,8.05
2024-02-22T09:18:55.769Z,8.02
2024-02-22T09:19:57.337Z,8.06
2024-02-22T09:20:58.813Z,8.09
2024-02-22T09:22:01.668Z,8.08
2024-02-22T09:23:03.309Z,8.11
2024-02-22T09:24:05.516Z,8.09
2024-02-22T09:25:07.766Z,8.05
2024-02-22T09:26:09.619Z,8.12
2024-02-22T09:27:13.385Z,8.13
2024-02-22T09:28:16.408Z,8.13
2024-02-22T09:29:17.980Z,8.12
2024-02-22T09:30:19.577Z,8.13
2024-02-22T09:31:21.123Z,8.16
2024-02-22T09:32:22.742Z,8.16
2024-02-22T09:33:24.322Z,8.12
2024-02-22T09:34:26.234Z,8.18
2024-02-22T09:35:27.971Z,8.21
2024-02-22T09:36:29.537Z,8.22
2024-02-22T09:37:32.225Z,8.21
2024-02-22T09:38:35.833Z,8.33
2024-02-22T09:39:39.195Z,8.33
2024-02-22T09:40:40.736Z,8.30
2024-02-22T09:41:43.725Z,8.40
2024-02-22T09:42:45.320Z,8.44
2024-02-22T09:43:46.856Z,8.47
2024-02-22T09:44:48.395Z,8.46
2024-02-22T09:45:49.943Z,8.44
2024-02-22T09:46:54.810Z,8.42
2024-02-22T09:47:56.539Z,8.44
2024-02-22T09:48:58.247Z,8.41
2024-02-22T09:50:02.541Z,8.45
2024-02-22T09:51:06.829Z,8.38
2024-02-22T09:52:09.564Z,8.41
2024-02-22T09:53:12.166Z,8.40
2024-02-22T09:54:14.623Z,8.50
2024-02-22T09:55:18.315Z,8.51
2024-02-22T09:56:19.983Z,8.52
2024-02-22T09:57:21.513Z,8.51
2024-02-22T09:58:24.642Z,8.50
2024-02-22T09:59:26.250Z,8.48
2024-02-22T10:00:27.780Z,8.49
2024-02-22T10:01:29.951Z,8.45
2024-02-22T10:02:31.775Z,8.50
2024-02-22T10:03:36.289Z,8.50
2024-02-22T10:04:37.908Z,8.54
2024-02-22T10:05:40.306Z,8.56
2024-02-22T10:06:41.971Z,8.58
2024-02-22T10:07:44.390Z,8.61
2024-02-22T10:08:48.159Z,8.59
2024-02-22T10:09:49.763Z,8.68
2024-02-22T10:10:52.969Z,8.74
2024-02-22T10:11:55.014Z,8.84
2024-02-22T10:12:58.114Z,8.94
2024-02-22T10:14:03.048Z,9.03
2024-02-22T10:15:09.121Z,9.05
2024-02-22T10:16:18.412Z,9.11
2024-02-22T10:17:30.958Z,9.12
2024-02-22T10:18:33.994Z,9.23
2024-02-22T10:19:35.749Z,9.11
2024-02-22T10:20:37.782Z,9.13
2024-02-22T10:21:40.096Z,9.10
2024-02-22T10:22:41.604Z,9.13
2024-02-22T10:23:45.730Z,9.16
2024-02-22T10:24:47.177Z,9.23
2024-02-22T10:25:48.947Z,9.32
2024-02-22T10:26:51.611Z,9.41
2024-02-22T10:27:54.037Z,9.44
2024-02-22T10:29:09.398Z,9.50
2024-02-22T10:30:14.984Z,9.62
2024-02-22T10:31:20.404Z,9.64
2024-02-22T10:32:22.348Z,9.62
2024-02-22T10:33:24.642Z,9.66
2024-02-22T10:34:27.102Z,9.75
2024-02-22T10:35:29.935Z,9.81
2024-02-22T10:36:31.679Z,9.91
2024-02-22T10:37:34.618Z,9.98
2024-02-22T10:38:37.719Z,10.08
2024-02-22T10:39:39.727Z,9.95
2024-02-22T10:40:44.953Z,10.01
2024-02-22T10:41:49.075Z,10.01
2024-02-22T10:42:54.215Z,10.09
2024-02-22T10:43:58.572Z,10.13
2024-02-22T10:45:00.162Z,10.16
2024-02-22T10:46:04.165Z,10.19
2024-02-22T10:47:06.381Z,10.26
2024-02-22T10:48:10.990Z,10.39
2024-02-22T10:49:14.278Z,10.42
2024-02-22T10:50:23.892Z,10.44
2024-02-22T10:51:29.605Z,10.38
2024-02-22T10:52:33.562Z,10.44
2024-02-22T10:53:38.463Z,10.62
2024-02-22T10:54:42.119Z,10.63
2024-02-22T10:55:51.382Z,10.75
2024-02-22T10:56:53.794Z,10.67
2024-02-22T10:57:57.457Z,10.77
2024-02-22T10:59:02.887Z,10.80
2024-02-22T11:00:06.418Z,10.94
2024-02-22T11:01:12.120Z,11.12
2024-02-22T11:02:14.324Z,11.22
2024-02-22T11:03:17.644Z,11.39
2024-02-22T11:04:20.679Z,11.29
2024-02-22T11:05:23.323Z,11.21
2024-02-22T11:06:24.973Z,11.23
2024-02-22T11:07:28.901Z,11.00
2024-02-22T11:08:31.032Z,11.03
2024-02-22T11:09:40.204Z,10.82
2024-02-22T11:10:44.705Z,10.79
2024-02-22T11:11:52.847Z,10.60
2024-02-22T11:12:54.522Z,10.45
2024-02-22T11:13:57.891Z,10.44
2024-02-22T11:15:07.744Z,10.33
2024-02-22T11:16:16.843Z,10.26
2024-02-22T11:17:19.645Z,10.31
2024-02-22T11:18:25.823Z,10.36
2024-02-22T11:19:27.971Z,10.36
2024-02-22T11:20:36.647Z,10.42
2024-02-22T11:21:39.181Z,10.38
2024-02-22T11:22:40.796Z,10.37
2024-02-22T11:23:42.861Z,10.41
2024-02-22T11:24:44.668Z,10.41
2024-02-22T11:25:47.237Z,10.51
2024-02-22T11:26:49.858Z,10.52
2024-02-22T11:27:59.414Z,10.56
2024-02-22T11:29:01.775Z,10.57
2024-02-22T11:30:16.332Z,10.64
2024-02-22T11:31:17.805Z,10.51
2024-02-22T11:32:22.269Z,10.37
2024-02-22T11:33:24.421Z,10.33
2024-02-22T11:34:27.332Z,10.36
2024-02-22T11:35:29.216Z,10.40
2024-02-22T11:36:31.398Z,10.36
2024-02-22T11:37:32.893Z,10.40
2024-02-22T11:38:34.539Z,10.46
2024-02-22T11:39:36.063Z,10.62
2024-02-22T11:40:37.990Z,10.62
2024-02-22T11:41:39.659Z,10.63
2024-02-22T11:42:41.102Z,10.48
2024-02-22T11:43:44.437Z,10.66
2024-02-22T11:44:46.736Z,10.64
2024-02-22T11:45:48.208Z,10.63
2024-02-22T11:46:49.941Z,10.47
2024-02-22T11:47:52.798Z,10.41
2024-02-22T11:48:54.437Z,10.46
2024-02-22T11:49:56.013Z,10.47
2024-02-22T11:50:58.211Z,10.48
2024-02-22T11:51:59.781Z,10.56
2024-02-22T11:53:03.802Z,10.53
2024-02-22T11:54:05.542Z,10.51
2024-02-22T11:55:11.196Z,10.51
2024-02-22T11:56:12.662Z,10.56
2024-02-22T11:57:15.160Z,10.51
2024-02-22T11:58:17.415Z,10.48
2024-02-22T11:59:19.307Z,10.49
2024-02-22T12:00:20.892Z,10.51
2024-02-22T12:01:23.085Z,10.45
2024-02-22T12:02:24.914Z,10.45
2024-02-22T12:03:26.675Z,10.43
2024-02-22T12:04:33.829Z,10.41
2024-02-22T12:05:35.994Z,10.46
2024-02-22T12:06:38.934Z,10.52
2024-02-22T12:07:41.674Z,10.47
2024-02-22T12:08:43.770Z,10.52
2024-02-22T12:09:45.886Z,10.43
2024-02-22T12:10:49.171Z,10.40
2024-02-22T12:11:51.730Z,10.47
2024-02-22T12:12:53.626Z,10.48
2024-02-22T12:13:59.985Z,10.33
2024-02-22T12:15:05.854Z,10.39
2024-02-22T12:16:08.865Z,10.40
2024-02-22T12:17:13.342Z,10.41
2024-02-22T12:18:18.311Z,10.46
2024-02-22T12:19:20.137Z,10.56
2024-02-22T12:20:27.721Z,10.60
2024-02-22T12:21:30.668Z,10.56
2024-02-22T12:22:33.722Z,10.60
2024-02-22T12:23:35.949Z,10.60
2024-02-22T12:24:37.500Z,10.56
2024-02-22T12:25:38.981Z,10.66
2024-02-22T12:26:40.511Z,10.61
2024-02-22T12:27:42.351Z,10.61
2024-02-22T12:28:43.962Z,10.54
2024-02-22T12:29:50.370Z,10.42
2024-02-22T12:30:53.415Z,10.44
2024-02-22T12:32:06.022Z,10.38
2024-02-22T12:33:11.168Z,10.36
2024-02-22T12:34:17.009Z,10.31
2024-02-22T12:35:19.629Z,10.35
2024-02-22T12:36:23.106Z,10.38
2024-02-22T12:37:24.815Z,10.38
2024-02-22T12:38:26.340Z,10.47
2024-02-22T12:39:27.870Z,10.52
2024-02-22T12:40:29.296Z,10.47
2024-02-22T12:41:30.875Z,10.52
2024-02-22T12:42:32.428Z,10.57
2024-02-22T12:43:34.076Z,10.58
2024-02-22T12:44:35.568Z,10.61
2024-02-22T12:45:37.038Z,10.62
2024-02-22T12:46:39.552Z,10.59
2024-02-22T12:47:42.467Z,10.68
2024-02-22T12:48:44.648Z,10.64
2024-02-22T12:49:46.367Z,10.63
2024-02-22T12:50:48.103Z,10.61
2024-02-22T12:51:49.691Z,10.60
2024-02-22T12:52:51.220Z,10.64
2024-02-22T12:53:52.718Z,10.71
2024-02-22T12:54:54.204Z,10.77
2024-02-22T12:55:56.290Z,10.83
2024-02-22T12:56:57.787Z,10.94
2024-02-22T12:57:59.486Z,10.89
2024-02-22T12:59:06.598Z,11.12
2024-02-22T13:00:10.296Z,11.24
2024-02-22T13:01:12.027Z,11.41
2024-02-22T13:02:13.757Z,11.43
2024-02-22T13:03:15.658Z,11.41
2024-02-22T13:04:17.280Z,11.48
2024-02-22T13:05:18.837Z,11.63
2024-02-22T13:06:20.433Z,11.73
2024-02-22T13:07:21.929Z,11.77
2024-02-22T13:08:29.879Z,11.76
2024-02-22T13:09:32.806Z,11.83
2024-02-22T13:10:34.360Z,11.77
2024-02-22T13:11:36.283Z,11.76
2024-02-22T13:12:37.730Z,11.80
2024-02-22T13:13:39.212Z,11.72
2024-02-22T13:14:40.675Z,11.78
2024-02-22T13:15:42.177Z,11.81
2024-02-22T13:16:43.749Z,11.79
2024-02-22T13:17:47.900Z,11.76
2024-02-22T13:18:51.101Z,11.77
2024-02-22T13:19:52.593Z,11.73
2024-02-22T13:20:54.279Z,11.70
2024-02-22T13:21:56.444Z,11.69
2024-02-22T13:22:58.314Z,11.70
2024-02-22T13:23:59.948Z,11.70
2024-02-22T13:25:01.406Z,11.72
2024-02-22T13:26:03.105Z,11.76
2024-02-22T13:27:04.928Z,11.80
2024-02-22T13:28:07.111Z,11.72
2024-02-22T13:29:08.616Z,11.73
2024-02-22T13:30:11.676Z,11.71
2024-02-22T13:31:13.165Z,11.70
2024-02-22T13:32:14.937Z,11.71
2024-02-22T13:33:16.658Z,11.74
2024-02-22T13:34:18.199Z,11.70
2024-02-22T13:35:19.741Z,11.74
2024-02-22T13:36:21.328Z,11.77
2024-02-22T13:37:22.802Z,11.76
2024-02-22T13:38:25.119Z,11.84
2024-02-22T13:39:27.433Z,11.95
2024-02-22T13:40:29.028Z,11.98
2024-02-22T13:41:30.560Z,12.06
2024-02-22T13:42:33.778Z,12.00
2024-02-22T13:43:36.583Z,12.03
2024-02-22T13:44:38.154Z,12.02
2024-02-22T13:45:44.391Z,11.87
2024-02-22T13:46:49.955Z,11.87
2024-02-22T13:47:51.862Z,11.77